sensor_id;sensor_type;location;lat;lon;timestamp;pressure;altitude;pressure_sealevel;temperature;humidity
26436;BME280;15351;52.408;16.826;2023-04-30T00:05:53;101002.81;;;11.48;68.67
26436;BME280;15351;52.408;16.826;2023-04-30T00:28:37;101021.01;;;11.01;68.22
26436;BME280;15351;52.408;16.826;2023-04-30T01:03:47;101044.38;;;10.57;68.39
26436;BME280;15351;52.408;16.826;2023-04-30T01:14:08;101052.86;;;10.44;68.44
26436;BME280;15351;52.408;16.826;2023-04-30T01:22:01;101053.14;;;10.45;68.30
26436;BME280;15351;52.408;16.826;2023-04-30T02:28:31;101138.98;;;10.02;67.99
26436;BME280;15351;52.408;16.826;2023-04-30T02:40:44;101143.04;;;9.91;68.67
26436;BME280;15351;52.408;16.826;2023-04-30T02:44:22;101140.98;;;9.94;68.67
26436;BME280;15351;52.408;16.826;2023-04-30T02:47:54;101142.24;;;9.96;68.51
26436;BME280;15351;52.408;16.826;2023-04-30T03:26:39;101180.89;;;9.52;68.61
26436;BME280;15351;52.408;16.826;2023-04-30T03:29:22;101184.23;;;9.49;68.29
26436;BME280;15351;52.408;16.826;2023-04-30T03:32:09;101184.61;;;9.48;68.26
26436;BME280;15351;52.408;16.826;2023-04-30T03:34:39;101184.31;;;9.42;68.40
26436;BME280;15351;52.408;16.826;2023-04-30T03:51:08;101201.01;;;9.26;68.63
26436;BME280;15351;52.408;16.826;2023-04-30T03:54:17;101208.86;;;9.25;68.46
26436;BME280;15351;52.408;16.826;2023-04-30T03:56:59;101213.56;;;9.21;68.63
26436;BME280;15351;52.408;16.826;2023-04-30T03:59:30;101216.65;;;9.22;68.50
26436;BME280;15351;52.408;16.826;2023-04-30T04:15:04;101237.91;;;9.23;68.65
26436;BME280;15351;52.408;16.826;2023-04-30T04:18:02;101241.21;;;9.22;68.71
26436;BME280;15351;52.408;16.826;2023-04-30T04:24:42;101252.88;;;9.24;68.75
26436;BME280;15351;52.408;16.826;2023-04-30T04:27:09;101258.66;;;9.27;68.73
26436;BME280;15351;52.408;16.826;2023-04-30T04:29:59;101261.50;;;9.28;68.80
26436;BME280;15351;52.408;16.826;2023-04-30T04:42:58;101275.05;;;9.43;68.17
26436;BME280;15351;52.408;16.826;2023-04-30T04:46:02;101280.32;;;9.39;68.42
26436;BME280;15351;52.408;16.826;2023-04-30T04:48:37;101283.27;;;9.40;68.65
26436;BME280;15351;52.408;16.826;2023-04-30T04:51:04;101278.67;;;9.43;68.70
26436;BME280;15351;52.408;16.826;2023-04-30T04:53:39;101287.19;;;9.46;68.47
26436;BME280;15351;52.408;16.826;2023-04-30T04:56:13;101283.73;;;9.46;68.24
26436;BME280;15351;52.408;16.826;2023-04-30T04:58:43;101291.18;;;9.47;68.35
26436;BME280;15351;52.408;16.826;2023-04-30T05:01:12;101292.27;;;9.50;68.32
26436;BME280;15351;52.408;16.826;2023-04-30T05:03:39;101295.08;;;9.53;68.28
26436;BME280;15351;52.408;16.826;2023-04-30T05:22:07;101310.30;;;9.75;67.76
26436;BME280;15351;52.408;16.826;2023-04-30T05:34:33;101329.56;;;9.99;67.71
26436;BME280;15351;52.408;16.826;2023-04-30T05:37:02;101331.30;;;10.07;67.40
26436;BME280;15351;52.408;16.826;2023-04-30T05:39:51;101334.50;;;10.12;67.21
26436;BME280;15351;52.408;16.826;2023-04-30T05:42:40;101339.23;;;10.15;67.02
26436;BME280;15351;52.408;16.826;2023-04-30T05:45:09;101346.53;;;10.16;67.13
26436;BME280;15351;52.408;16.826;2023-04-30T05:53:53;101348.61;;;10.29;66.86
26436;BME280;15351;52.408;16.826;2023-04-30T06:00:21;101352.86;;;10.35;66.97
26436;BME280;15351;52.408;16.826;2023-04-30T06:06:45;101362.30;;;10.46;66.46
26436;BME280;15351;52.408;16.826;2023-04-30T06:09:35;101365.15;;;10.52;66.29
26436;BME280;15351;52.408;16.826;2023-04-30T06:19:21;101378.27;;;10.67;66.17
26436;BME280;15351;52.408;16.826;2023-04-30T06:25:06;101379.13;;;10.81;65.95
26436;BME280;15351;52.408;16.826;2023-04-30T06:28:32;101379.73;;;10.89;65.28
26436;BME280;15351;52.408;16.826;2023-04-30T06:35:39;101386.91;;;10.96;64.10
26436;BME280;15351;52.408;16.826;2023-04-30T06:38:58;101386.55;;;10.98;63.99
26436;BME280;15351;52.408;16.826;2023-04-30T06:44:33;101388.21;;;11.04;63.76
26436;BME280;15351;52.408;16.826;2023-04-30T06:47:23;101386.28;;;11.07;63.19
26436;BME280;15351;52.408;16.826;2023-04-30T06:53:24;101393.39;;;11.17;61.18
26436;BME280;15351;52.408;16.826;2023-04-30T06:55:54;101394.16;;;11.20;60.77
26436;BME280;15351;52.408;16.826;2023-04-30T06:58:27;101394.33;;;11.24;61.12
26436;BME280;15351;52.408;16.826;2023-04-30T07:00:58;101397.57;;;11.30;60.89
26436;BME280;15351;52.408;16.826;2023-04-30T07:03:37;101393.46;;;11.33;60.19
26436;BME280;15351;52.408;16.826;2023-04-30T07:06:08;101393.60;;;11.39;60.01
26436;BME280;15351;52.408;16.826;2023-04-30T07:09:11;101396.63;;;11.44;59.80
26436;BME280;15351;52.408;16.826;2023-04-30T07:11:43;101393.63;;;11.50;59.85
26436;BME280;15351;52.408;16.826;2023-04-30T07:14:14;101397.59;;;11.59;59.49
26436;BME280;15351;52.408;16.826;2023-04-30T07:16:49;101396.62;;;11.66;59.00
26436;BME280;15351;52.408;16.826;2023-04-30T07:22:14;101392.83;;;11.92;58.08
26436;BME280;15351;52.408;16.826;2023-04-30T07:25:40;101390.80;;;12.24;58.29
26436;BME280;15351;52.408;16.826;2023-04-30T07:28:58;101390.07;;;12.63;57.34
26436;BME280;15351;52.408;16.826;2023-04-30T07:35:14;101386.83;;;13.14;55.30
26436;BME280;15351;52.408;16.826;2023-04-30T07:38:26;101393.77;;;13.30;53.63
26436;BME280;15351;52.408;16.826;2023-04-30T07:41:38;101394.89;;;13.41;52.58
26436;BME280;15351;52.408;16.826;2023-04-30T07:44:13;101395.88;;;13.49;52.10
26436;BME280;15351;52.408;16.826;2023-04-30T07:46:39;101404.77;;;13.60;52.72
26436;BME280;15351;52.408;16.826;2023-04-30T07:49:11;101404.42;;;13.74;52.22
26436;BME280;15351;52.408;16.826;2023-04-30T07:51:38;101406.85;;;13.85;52.06
26436;BME280;15351;52.408;16.826;2023-04-30T07:54:13;101405.75;;;14.02;52.08
26436;BME280;15351;52.408;16.826;2023-04-30T08:03:44;101406.16;;;14.56;51.70
26436;BME280;15351;52.408;16.826;2023-04-30T08:06:18;101402.88;;;14.72;51.52
26436;BME280;15351;52.408;16.826;2023-04-30T08:09:07;101408.73;;;14.88;50.58
26436;BME280;15351;52.408;16.826;2023-04-30T08:11:39;101413.20;;;14.99;50.37
26436;BME280;15351;52.408;16.826;2023-04-30T08:14:19;101416.70;;;15.05;49.57
26436;BME280;15351;52.408;16.826;2023-04-30T08:17:03;101415.67;;;15.13;50.23
26436;BME280;15351;52.408;16.826;2023-04-30T08:20:19;101419.33;;;15.29;49.16
26436;BME280;15351;52.408;16.826;2023-04-30T08:22:48;101417.81;;;15.44;49.21
26436;BME280;15351;52.408;16.826;2023-04-30T08:25:15;101415.29;;;15.62;49.70
26436;BME280;15351;52.408;16.826;2023-04-30T08:28:38;101420.02;;;15.77;49.24
26436;BME280;15351;52.408;16.826;2023-04-30T08:31:28;101421.07;;;15.89;48.59
26436;BME280;15351;52.408;16.826;2023-04-30T08:34:18;101425.84;;;16.04;47.82
26436;BME280;15351;52.408;16.826;2023-04-30T08:40:40;101424.53;;;16.28;46.78
26436;BME280;15351;52.408;16.826;2023-04-30T08:43:57;101430.48;;;16.40;46.48
26436;BME280;15351;52.408;16.826;2023-04-30T08:47:08;101431.68;;;16.53;45.93
26436;BME280;15351;52.408;16.826;2023-04-30T08:53:35;101430.12;;;16.83;44.44
26436;BME280;15351;52.408;16.826;2023-04-30T08:59:44;101431.52;;;17.02;44.09
26436;BME280;15351;52.408;16.826;2023-04-30T09:03:45;101433.86;;;17.16;44.79
26436;BME280;15351;52.408;16.826;2023-04-30T09:07:18;101431.77;;;17.27;44.67
26436;BME280;15351;52.408;16.826;2023-04-30T09:10:19;101432.02;;;17.37;44.06
26436;BME280;15351;52.408;16.826;2023-04-30T09:16:51;101430.06;;;17.56;43.13
26436;BME280;15351;52.408;16.826;2023-04-30T09:20:18;101433.52;;;17.70;43.56
26436;BME280;15351;52.408;16.826;2023-04-30T09:29:47;101435.05;;;18.10;42.89
26436;BME280;15351;52.408;16.826;2023-04-30T09:33:15;101440.98;;;18.16;41.26
26436;BME280;15351;52.408;16.826;2023-04-30T09:41:49;101436.17;;;18.08;41.73
26436;BME280;15351;52.408;16.826;2023-04-30T09:45:36;101438.20;;;18.03;40.96
26436;BME280;15351;52.408;16.826;2023-04-30T09:48:03;101425.16;;;18.13;41.31
26436;BME280;15351;52.408;16.826;2023-04-30T09:57:02;101424.13;;;18.70;40.59
26436;BME280;15351;52.408;16.826;2023-04-30T10:10:33;101419.75;;;19.11;39.51
26436;BME280;15351;52.408;16.826;2023-04-30T10:13:36;101411.14;;;19.19;39.67
26436;BME280;15351;52.408;16.826;2023-04-30T10:16:42;101408.67;;;19.26;40.06
26436;BME280;15351;52.408;16.826;2023-04-30T10:22:27;101404.84;;;19.45;38.84
26436;BME280;15351;52.408;16.826;2023-04-30T10:24:55;101396.13;;;19.52;38.56
26436;BME280;15351;52.408;16.826;2023-04-30T10:27:28;101401.65;;;19.49;38.16
26436;BME280;15351;52.408;16.826;2023-04-30T10:29:56;101407.12;;;19.41;37.86
26436;BME280;15351;52.408;16.826;2023-04-30T10:35:32;101400.73;;;19.42;37.97
26436;BME280;15351;52.408;16.826;2023-04-30T10:38:25;101407.66;;;19.49;37.80
26436;BME280;15351;52.408;16.826;2023-04-30T10:41:07;101403.73;;;19.59;37.76
26436;BME280;15351;52.408;16.826;2023-04-30T10:43:55;101398.50;;;19.66;37.47
26436;BME280;15351;52.408;16.826;2023-04-30T10:46:38;101392.52;;;19.66;37.79
26436;BME280;15351;52.408;16.826;2023-04-30T10:49:27;101390.77;;;19.68;37.50
26436;BME280;15351;52.408;16.826;2023-04-30T10:52:29;101395.23;;;19.78;38.14
26436;BME280;15351;52.408;16.826;2023-04-30T10:55:19;101397.45;;;19.90;37.68
26436;BME280;15351;52.408;16.826;2023-04-30T11:01:25;101394.38;;;19.93;37.96
26436;BME280;15351;52.408;16.826;2023-04-30T11:04:08;101396.06;;;19.93;37.82
26436;BME280;15351;52.408;16.826;2023-04-30T11:07:06;101397.19;;;20.01;37.88
26436;BME280;15351;52.408;16.826;2023-04-30T11:10:01;101398.09;;;20.07;37.38
26436;BME280;15351;52.408;16.826;2023-04-30T11:12:34;101390.41;;;20.03;37.09
26436;BME280;15351;52.408;16.826;2023-04-30T11:15:20;101385.44;;;20.02;37.00
26436;BME280;15351;52.408;16.826;2023-04-30T11:18:09;101388.14;;;19.79;36.08
26436;BME280;15351;52.408;16.826;2023-04-30T11:21:03;101394.75;;;19.80;37.21
26436;BME280;15351;52.408;16.826;2023-04-30T11:24:01;101391.25;;;19.89;37.28
26436;BME280;15351;52.408;16.826;2023-04-30T11:27:08;101391.63;;;19.95;37.32
26436;BME280;15351;52.408;16.826;2023-04-30T11:30:09;101387.66;;;20.00;37.11
26436;BME280;15351;52.408;16.826;2023-04-30T11:32:48;101389.95;;;19.92;36.49
26436;BME280;15351;52.408;16.826;2023-04-30T11:35:45;101390.29;;;19.93;36.03
26436;BME280;15351;52.408;16.826;2023-04-30T11:38:44;101387.55;;;19.93;35.92
26436;BME280;15351;52.408;16.826;2023-04-30T11:41:12;101388.59;;;19.95;36.09
26436;BME280;15351;52.408;16.826;2023-04-30T11:44:04;101390.61;;;20.01;36.45
26436;BME280;15351;52.408;16.826;2023-04-30T11:46:48;101388.45;;;20.11;36.69
26436;BME280;15351;52.408;16.826;2023-04-30T11:49:34;101387.92;;;20.17;35.72
26436;BME280;15351;52.408;16.826;2023-04-30T11:52:26;101388.70;;;20.18;35.62
26436;BME280;15351;52.408;16.826;2023-04-30T11:54:54;101389.67;;;20.22;35.35
26436;BME280;15351;52.408;16.826;2023-04-30T11:57:21;101391.02;;;20.12;34.10
26436;BME280;15351;52.408;16.826;2023-04-30T11:59:55;101389.33;;;19.95;33.79
26436;BME280;15351;52.408;16.826;2023-04-30T12:02:48;101394.92;;;19.83;34.10
26436;BME280;15351;52.408;16.826;2023-04-30T12:05:50;101393.92;;;19.90;34.75
26436;BME280;15351;52.408;16.826;2023-04-30T12:08:30;101396.33;;;19.88;34.12
26436;BME280;15351;52.408;16.826;2023-04-30T12:10:57;101391.67;;;19.80;33.25
26436;BME280;15351;52.408;16.826;2023-04-30T12:13:40;101391.23;;;19.77;33.03
26436;BME280;15351;52.408;16.826;2023-04-30T12:16:48;101384.86;;;19.75;33.43
26436;BME280;15351;52.408;16.826;2023-04-30T12:19:20;101386.63;;;19.81;34.35
26436;BME280;15351;52.408;16.826;2023-04-30T12:22:12;101384.85;;;19.90;34.50
26436;BME280;15351;52.408;16.826;2023-04-30T12:25:04;101385.13;;;20.01;34.05
26436;BME280;15351;52.408;16.826;2023-04-30T12:27:51;101379.86;;;20.01;32.76
26436;BME280;15351;52.408;16.826;2023-04-30T12:30:51;101384.09;;;19.96;33.16
26436;BME280;15351;52.408;16.826;2023-04-30T12:33:39;101387.50;;;20.03;33.31
26436;BME280;15351;52.408;16.826;2023-04-30T12:36:32;101381.48;;;19.91;32.66
26436;BME280;15351;52.408;16.826;2023-04-30T12:39:24;101386.23;;;19.85;33.38
26436;BME280;15351;52.408;16.826;2023-04-30T12:42:11;101380.88;;;19.85;33.07
26436;BME280;15351;52.408;16.826;2023-04-30T12:44:52;101383.45;;;19.85;32.67
26436;BME280;15351;52.408;16.826;2023-04-30T12:47:18;101385.78;;;19.87;32.26
26436;BME280;15351;52.408;16.826;2023-04-30T12:50:09;101378.78;;;19.81;32.31
26436;BME280;15351;52.408;16.826;2023-04-30T12:55:20;101376.18;;;19.76;32.48
26436;BME280;15351;52.408;16.826;2023-04-30T12:58:12;101375.02;;;19.63;32.21
26436;BME280;15351;52.408;16.826;2023-04-30T13:00:50;101374.71;;;19.35;32.11
26436;BME280;15351;52.408;16.826;2023-04-30T13:03:18;101365.79;;;19.31;32.90
26436;BME280;15351;52.408;16.826;2023-04-30T13:05:50;101363.27;;;19.28;32.26
26436;BME280;15351;52.408;16.826;2023-04-30T13:08:17;101368.13;;;19.25;32.75
26436;BME280;15351;52.408;16.826;2023-04-30T13:10:46;101371.23;;;19.30;32.85
26436;BME280;15351;52.408;16.826;2023-04-30T13:13:21;101371.01;;;19.37;32.88
26436;BME280;15351;52.408;16.826;2023-04-30T13:15:48;101370.86;;;19.40;32.81
26436;BME280;15351;52.408;16.826;2023-04-30T13:18:15;101371.88;;;19.43;32.70
26436;BME280;15351;52.408;16.826;2023-04-30T13:20:42;101365.63;;;19.40;32.64
26436;BME280;15351;52.408;16.826;2023-04-30T13:23:10;101365.15;;;19.38;32.75
26436;BME280;15351;52.408;16.826;2023-04-30T13:25:49;101365.45;;;19.37;33.46
26436;BME280;15351;52.408;16.826;2023-04-30T13:28:20;101365.44;;;19.38;32.67
26436;BME280;15351;52.408;16.826;2023-04-30T13:30:48;101364.40;;;19.35;32.52
26436;BME280;15351;52.408;16.826;2023-04-30T13:33:20;101367.34;;;19.38;32.61
26436;BME280;15351;52.408;16.826;2023-04-30T13:36:03;101364.48;;;19.27;32.12
26436;BME280;15351;52.408;16.826;2023-04-30T13:38:29;101361.34;;;19.20;32.21
26436;BME280;15351;52.408;16.826;2023-04-30T13:47:04;101353.38;;;19.12;31.96
26436;BME280;15351;52.408;16.826;2023-04-30T13:52:22;101361.05;;;19.04;31.34
26436;BME280;15351;52.408;16.826;2023-04-30T13:55:00;101358.20;;;18.94;31.36
26436;BME280;15351;52.408;16.826;2023-04-30T13:57:55;101361.42;;;18.89;31.60
26436;BME280;15351;52.408;16.826;2023-04-30T14:00:27;101362.27;;;18.85;31.54
26436;BME280;15351;52.408;16.826;2023-04-30T14:02:56;101361.45;;;18.81;31.69
26436;BME280;15351;52.408;16.826;2023-04-30T14:05:37;101355.83;;;18.81;31.50
26436;BME280;15351;52.408;16.826;2023-04-30T14:08:05;101352.10;;;18.79;31.53
26436;BME280;15351;52.408;16.826;2023-04-30T14:14:06;101354.59;;;18.77;32.18
26436;BME280;15351;52.408;16.826;2023-04-30T14:16:34;101349.01;;;18.72;32.24
26436;BME280;15351;52.408;16.826;2023-04-30T14:19:04;101346.52;;;18.68;31.86
26436;BME280;15351;52.408;16.826;2023-04-30T14:21:34;101343.80;;;18.62;32.01
26436;BME280;15351;52.408;16.826;2023-04-30T14:24:01;101348.75;;;18.61;32.28
26436;BME280;15351;52.408;16.826;2023-04-30T14:29:47;101349.03;;;18.56;32.41
26436;BME280;15351;52.408;16.826;2023-04-30T14:32:38;101348.06;;;18.57;32.79
26436;BME280;15351;52.408;16.826;2023-04-30T14:36:12;101338.21;;;18.52;33.17
26436;BME280;15351;52.408;16.826;2023-04-30T14:38:55;101336.66;;;18.46;32.73
26436;BME280;15351;52.408;16.826;2023-04-30T14:47:27;101339.65;;;18.40;32.13
26436;BME280;15351;52.408;16.826;2023-04-30T14:50:35;101332.37;;;18.35;31.56
26436;BME280;15351;52.408;16.826;2023-04-30T14:53:20;101330.75;;;18.25;31.28
26436;BME280;15351;52.408;16.826;2023-04-30T14:56:27;101330.40;;;18.21;31.42
26436;BME280;15351;52.408;16.826;2023-04-30T14:58:55;101335.05;;;18.18;30.23
26436;BME280;15351;52.408;16.826;2023-04-30T15:01:21;101339.05;;;18.14;30.66
26436;BME280;15351;52.408;16.826;2023-04-30T15:03:48;101336.50;;;18.09;30.56
26436;BME280;15351;52.408;16.826;2023-04-30T15:06:15;101339.52;;;18.05;30.82
26436;BME280;15351;52.408;16.826;2023-04-30T15:08:45;101340.98;;;18.00;30.97
26436;BME280;15351;52.408;16.826;2023-04-30T15:11:12;101339.77;;;17.95;31.51
26436;BME280;15351;52.408;16.826;2023-04-30T15:13:57;101338.75;;;17.90;32.21
26436;BME280;15351;52.408;16.826;2023-04-30T15:16:24;101333.70;;;17.89;32.49
26436;BME280;15351;52.408;16.826;2023-04-30T15:18:58;101337.17;;;17.87;32.56
26436;BME280;15351;52.408;16.826;2023-04-30T15:21:50;101334.02;;;17.83;32.22
26436;BME280;15351;52.408;16.826;2023-04-30T15:24:17;101333.52;;;17.80;31.94
26436;BME280;15351;52.408;16.826;2023-04-30T15:27:05;101328.30;;;17.74;31.35
26436;BME280;15351;52.408;16.826;2023-04-30T15:29:39;101333.64;;;17.69;31.24
26436;BME280;15351;52.408;16.826;2023-04-30T15:32:09;101335.14;;;17.68;31.39
26436;BME280;15351;52.408;16.826;2023-04-30T15:34:39;101337.17;;;17.62;31.70
26436;BME280;15351;52.408;16.826;2023-04-30T15:37:16;101332.82;;;17.56;31.98
26436;BME280;15351;52.408;16.826;2023-04-30T15:39:43;101332.30;;;17.51;31.58
26436;BME280;15351;52.408;16.826;2023-04-30T15:42:10;101332.05;;;17.47;32.27
26436;BME280;15351;52.408;16.826;2023-04-30T15:44:39;101333.83;;;17.41;32.24
26436;BME280;15351;52.408;16.826;2023-04-30T15:47:06;101334.21;;;17.35;32.57
26436;BME280;15351;52.408;16.826;2023-04-30T15:49:34;101331.84;;;17.31;32.87
26436;BME280;15351;52.408;16.826;2023-04-30T15:52:02;101331.25;;;17.26;32.79
26436;BME280;15351;52.408;16.826;2023-04-30T15:54:29;101329.45;;;17.22;32.86
26436;BME280;15351;52.408;16.826;2023-04-30T15:57:18;101325.48;;;17.18;32.87
26436;BME280;15351;52.408;16.826;2023-04-30T15:59:56;101333.45;;;17.12;33.19
26436;BME280;15351;52.408;16.826;2023-04-30T16:02:43;101335.31;;;17.05;33.11
26436;BME280;15351;52.408;16.826;2023-04-30T16:05:20;101332.82;;;17.01;33.75
26436;BME280;15351;52.408;16.826;2023-04-30T16:08:19;101332.07;;;16.94;33.64
26436;BME280;15351;52.408;16.826;2023-04-30T16:10:55;101330.71;;;16.86;33.58
26436;BME280;15351;52.408;16.826;2023-04-30T16:13:49;101328.40;;;16.81;33.75
26436;BME280;15351;52.408;16.826;2023-04-30T16:16:44;101330.25;;;16.77;33.07
26436;BME280;15351;52.408;16.826;2023-04-30T16:19:23;101330.54;;;16.71;32.95
26436;BME280;15351;52.408;16.826;2023-04-30T16:22:10;101327.48;;;16.65;33.50
26436;BME280;15351;52.408;16.826;2023-04-30T16:24:42;101333.86;;;16.58;33.58
26436;BME280;15351;52.408;16.826;2023-04-30T16:27:09;101334.70;;;16.52;34.42
26436;BME280;15351;52.408;16.826;2023-04-30T16:29:47;101339.17;;;16.47;34.33
26436;BME280;15351;52.408;16.826;2023-04-30T16:32:22;101339.48;;;16.44;33.97
26436;BME280;15351;52.408;16.826;2023-04-30T16:35:18;101335.69;;;16.43;33.78
26436;BME280;15351;52.408;16.826;2023-04-30T16:37:44;101338.27;;;16.39;33.69
26436;BME280;15351;52.408;16.826;2023-04-30T16:40:38;101335.44;;;16.33;33.69
26436;BME280;15351;52.408;16.826;2023-04-30T16:43:34;101326.29;;;16.27;34.13
26436;BME280;15351;52.408;16.826;2023-04-30T16:46:18;101330.10;;;16.24;34.36
26436;BME280;15351;52.408;16.826;2023-04-30T16:49:39;101327.02;;;16.15;34.57
26436;BME280;15351;52.408;16.826;2023-04-30T16:59:54;101333.75;;;15.97;34.62
26436;BME280;15351;52.408;16.826;2023-04-30T17:03:06;101334.91;;;15.90;34.47
26436;BME280;15351;52.408;16.826;2023-04-30T17:05:36;101330.33;;;15.84;34.89
26436;BME280;15351;52.408;16.826;2023-04-30T17:08:36;101327.69;;;15.79;35.17
26436;BME280;15351;52.408;16.826;2023-04-30T17:11:05;101328.48;;;15.75;35.18
26436;BME280;15351;52.408;16.826;2023-04-30T17:13:34;101327.92;;;15.71;34.90
26436;BME280;15351;52.408;16.826;2023-04-30T17:16:46;101328.20;;;15.65;34.73
26436;BME280;15351;52.408;16.826;2023-04-30T17:22:31;101325.69;;;15.55;34.79
26436;BME280;15351;52.408;16.826;2023-04-30T17:25:01;101337.41;;;15.48;35.06
26436;BME280;15351;52.408;16.826;2023-04-30T17:27:57;101331.30;;;15.40;35.08
26436;BME280;15351;52.408;16.826;2023-04-30T17:30:33;101334.95;;;15.36;35.48
26436;BME280;15351;52.408;16.826;2023-04-30T17:33:26;101334.34;;;15.30;35.59
26436;BME280;15351;52.408;16.826;2023-04-30T17:36:09;101338.23;;;15.25;36.04
26436;BME280;15351;52.408;16.826;2023-04-30T17:38:44;101343.29;;;15.23;36.56
26436;BME280;15351;52.408;16.826;2023-04-30T17:45:12;101348.84;;;15.18;36.67
26436;BME280;15351;52.408;16.826;2023-04-30T17:48:09;101351.21;;;15.10;37.48
26436;BME280;15351;52.408;16.826;2023-04-30T17:50:39;101353.75;;;15.01;37.94
26436;BME280;15351;52.408;16.826;2023-04-30T17:53:06;101354.40;;;14.92;38.35
26436;BME280;15351;52.408;16.826;2023-04-30T17:55:33;101354.57;;;14.82;38.39
26436;BME280;15351;52.408;16.826;2023-04-30T17:58:14;101350.77;;;14.71;38.68
26436;BME280;15351;52.408;16.826;2023-04-30T18:00:47;101350.56;;;14.62;38.97
26436;BME280;15351;52.408;16.826;2023-04-30T18:04:07;101355.08;;;14.54;39.31
26436;BME280;15351;52.408;16.826;2023-04-30T18:06:47;101354.53;;;14.44;39.41
26436;BME280;15351;52.408;16.826;2023-04-30T18:09:47;101358.72;;;14.35;39.85
26436;BME280;15351;52.408;16.826;2023-04-30T18:12:42;101360.11;;;14.26;39.97
26436;BME280;15351;52.408;16.826;2023-04-30T18:15:10;101362.92;;;14.16;40.12
26436;BME280;15351;52.408;16.826;2023-04-30T18:17:39;101365.20;;;14.10;40.42
26436;BME280;15351;52.408;16.826;2023-04-30T18:20:52;101365.61;;;14.00;40.73
26436;BME280;15351;52.408;16.826;2023-04-30T18:24:10;101367.89;;;13.90;40.93
26436;BME280;15351;52.408;16.826;2023-04-30T18:37:59;101378.25;;;13.52;42.06
26436;BME280;15351;52.408;16.826;2023-04-30T18:41:35;101381.48;;;13.46;42.08
26436;BME280;15351;52.408;16.826;2023-04-30T18:44:49;101382.09;;;13.36;42.28
26436;BME280;15351;52.408;16.826;2023-04-30T18:47:50;101386.66;;;13.26;42.74
26436;BME280;15351;52.408;16.826;2023-04-30T18:50:17;101387.65;;;13.18;42.85
26436;BME280;15351;52.408;16.826;2023-04-30T18:52:47;101387.73;;;13.09;43.38
26436;BME280;15351;52.408;16.826;2023-04-30T18:55:17;101386.86;;;13.01;43.58
26436;BME280;15351;52.408;16.826;2023-04-30T18:57:46;101391.08;;;12.93;43.89
26436;BME280;15351;52.408;16.826;2023-04-30T19:00:12;101396.38;;;12.84;44.38
26436;BME280;15351;52.408;16.826;2023-04-30T19:02:39;101401.42;;;12.76;44.73
26436;BME280;15351;52.408;16.826;2023-04-30T19:05:08;101406.30;;;12.68;44.85
26436;BME280;15351;52.408;16.826;2023-04-30T19:07:35;101410.42;;;12.60;45.41
26436;BME280;15351;52.408;16.826;2023-04-30T19:10:01;101412.10;;;12.53;45.43
26436;BME280;15351;52.408;16.826;2023-04-30T19:12:36;101413.44;;;12.46;45.79
26436;BME280;15351;52.408;16.826;2023-04-30T19:18:56;101417.64;;;12.28;46.35
26436;BME280;15351;52.408;16.826;2023-04-30T19:24:54;101421.91;;;12.10;46.54
26436;BME280;15351;52.408;16.826;2023-04-30T19:27:32;101421.55;;;12.02;47.08
26436;BME280;15351;52.408;16.826;2023-04-30T19:30:28;101420.91;;;11.98;47.18
26436;BME280;15351;52.408;16.826;2023-04-30T19:34:10;101428.83;;;11.91;47.25
26436;BME280;15351;52.408;16.826;2023-04-30T19:41:32;101431.15;;;11.80;47.64
26436;BME280;15351;52.408;16.826;2023-04-30T19:45:03;101430.55;;;11.73;47.99
26436;BME280;15351;52.408;16.826;2023-04-30T19:51:54;101431.64;;;11.60;48.10
26436;BME280;15351;52.408;16.826;2023-04-30T19:54:50;101437.95;;;11.57;48.17
26436;BME280;15351;52.408;16.826;2023-04-30T20:01:42;101445.09;;;11.47;48.55
26436;BME280;15351;52.408;16.826;2023-04-30T20:05:23;101448.04;;;11.42;48.67
26436;BME280;15351;52.408;16.826;2023-04-30T20:12:10;101453.16;;;11.28;49.01
26436;BME280;15351;52.408;16.826;2023-04-30T20:15:08;101449.80;;;11.23;49.55
26436;BME280;15351;52.408;16.826;2023-04-30T20:21:31;101457.31;;;11.13;49.45
26436;BME280;15351;52.408;16.826;2023-04-30T20:24:33;101457.15;;;11.06;49.77
26436;BME280;15351;52.408;16.826;2023-04-30T20:27:49;101454.29;;;10.99;50.22
26436;BME280;15351;52.408;16.826;2023-04-30T20:30:47;101454.59;;;10.94;50.40
26436;BME280;15351;52.408;16.826;2023-04-30T20:33:56;101453.41;;;10.87;50.70
26436;BME280;15351;52.408;16.826;2023-04-30T20:36:58;101459.90;;;10.82;50.83
26436;BME280;15351;52.408;16.826;2023-04-30T20:47:21;101453.52;;;10.63;51.57
26436;BME280;15351;52.408;16.826;2023-04-30T20:51:14;101446.48;;;10.51;51.64
26436;BME280;15351;52.408;16.826;2023-04-30T20:57:56;101462.73;;;10.43;52.12
26436;BME280;15351;52.408;16.826;2023-04-30T21:00:56;101463.94;;;10.37;52.50
26436;BME280;15351;52.408;16.826;2023-04-30T21:04:27;101463.34;;;10.32;52.64
26436;BME280;15351;52.408;16.826;2023-04-30T21:10:49;101475.79;;;10.19;53.01
26436;BME280;15351;52.408;16.826;2023-04-30T21:13:47;101477.45;;;10.13;53.18
26436;BME280;15351;52.408;16.826;2023-04-30T21:16:55;101480.73;;;10.08;53.45
26436;BME280;15351;52.408;16.826;2023-04-30T21:19:48;101480.27;;;10.01;53.66
26436;BME280;15351;52.408;16.826;2023-04-30T21:23:06;101485.19;;;9.97;53.71
26436;BME280;15351;52.408;16.826;2023-04-30T21:26:09;101487.58;;;9.92;53.81
26436;BME280;15351;52.408;16.826;2023-04-30T21:28:37;101488.44;;;9.86;53.94
26436;BME280;15351;52.408;16.826;2023-04-30T21:31:57;101491.39;;;9.81;53.87
26436;BME280;15351;52.408;16.826;2023-04-30T21:34:44;101490.08;;;9.75;53.94